Terminal Aerodrome Forecast
Issued by NWS

Home | Current Version | Previous Version | Text Only | Print | Product List | Glossary On
Versions: 1 2 3 4 5 6 7 8 9 10 11 12 13 14 15 16 17 18 19 20 21
000
FTUS43 KTOP 201700
TAFMHK
TAF
KMHK 201724Z 2018/2118 22010KT P6SM SCT200
     FM210300 20012KT 5SM BR OVC014=

USA.gov is the U.S. government's official web portal to all federal, state and local government web resources and services.